.
WxDataArchive / Data Records for 2014-04-10
2014-04-09 April 2014 2014-04-11

Data Records for Thursday, 10 April 2014

Time	Temp	Chill	HIndex	Humid	Dewpt	 Wind 	HiWind	WindDir	Rain 	Barom
-----	----	-----	------	-----	-----	------	------	-------	-----	-----
00:00	48.6	48.6	48.6	61	35.8	0	1	248	0.00	29.941 
00:05	48.8	48.8	48.8	61	36.0	0	1	248	0.00	29.941 
00:10	48.9	48.9	48.9	60	35.6	0	1	248	0.00	29.941 
00:15	49.1	49.1	49.1	60	35.8	0	1	248	0.00	29.940 
00:20	49.2	49.2	49.2	59	35.5	0	2	248	0.00	29.940 
00:25	49.2	49.2	49.2	59	35.5	0	1	248	0.00	29.940 
00:30	49.2	49.2	49.2	59	35.5	0	1	248	0.00	29.942 
00:35	49.1	49.1	49.1	60	35.8	0	1	248	0.00	29.942 
00:40	49.1	49.1	49.1	60	35.8	0	1	248	0.00	29.942 
00:45	49.1	49.1	49.1	60	35.8	0	1	248	0.00	29.946 
00:50	49.2	49.2	49.2	60	35.9	0	1	248	0.00	29.946 
00:55	49.1	49.1	49.1	60	35.8	0	1	248	0.00	29.946 
01:00	48.9	48.9	48.9	60	35.6	0	2	248	0.00	29.946 
01:05	48.9	48.9	48.9	61	36.0	0	1	248	0.00	29.946 
01:10	48.9	48.9	48.9	61	36.0	0	1	248	0.00	29.946 
01:15	48.9	48.9	48.9	61	36.0	0	2	248	0.00	29.939 
01:20	48.9	48.9	48.9	60	35.6	0	1	248	0.00	29.939 
01:25	49.1	49.1	49.1	60	35.8	0	3	248	0.00	29.939 
01:30	49.1	49.1	49.1	60	35.8	0	4	248	0.00	29.937 
01:35	49.1	49.1	49.1	60	35.8	0	1	248	0.00	29.937 
01:40	49.1	49.1	49.1	60	35.8	0	2	248	0.00	29.937 
01:45	49.2	49.2	49.2	60	35.9	0	2	248	0.00	29.938 
01:50	49.2	49.2	49.2	60	35.9	0	1	248	0.00	29.938 
01:55	49.1	49.1	49.1	60	35.8	0	4	248	0.00	29.938 
02:00	49.1	49.1	49.1	59	35.4	0	3	248	0.00	29.934 
02:05	49.2	49.2	49.2	59	35.5	0	3	248	0.00	29.934 
02:10	49.2	49.2	49.2	59	35.5	0	3	248	0.00	29.934 
02:15	49.2	49.2	49.2	59	35.5	1	3	248	0.00	29.936 
02:20	49.2	49.2	49.2	59	35.5	0	2	248	0.00	29.936 
02:25	49.1	49.1	49.1	59	35.4	0	1	248	0.00	29.936 
02:30	48.9	48.9	48.9	59	35.2	0	1	248	0.00	29.924 
02:35	48.8	48.8	48.8	59	35.1	0	4	248	0.00	29.924 
02:40	48.6	48.6	48.6	60	35.3	0	2	248	0.00	29.924 
02:45	48.3	48.3	48.3	60	35.1	0	1	248	0.00	29.922 
02:50	48.2	48.2	48.2	61	35.4	0	4	248	0.00	29.922 
02:55	48.0	48.0	48.0	61	35.2	0	1	248	0.00	29.922 
03:00	47.7	47.7	47.7	62	35.3	0	2	248	0.00	29.910 
03:05	47.6	47.6	47.6	62	35.2	0	2	248	0.00	29.910 
03:10	47.4	47.4	47.4	62	35.0	0	2	248	0.00	29.910 
03:15	47.3	47.3	47.3	62	34.9	0	3	248	0.00	29.908 
03:20	47.3	47.3	47.3	62	34.9	0	2	248	0.00	29.908 
03:25	47.3	47.3	47.3	63	35.4	0	2	248	0.00	29.908 
03:30	47.1	47.1	47.1	63	35.2	0	2	248	0.00	29.905 
03:35	47.1	47.1	47.1	63	35.2	0	1	248	0.00	29.905 
03:40	47.1	47.1	47.1	63	35.2	0	4	248	0.00	29.905 
03:45	47.1	47.1	47.1	63	35.2	0	3	248	0.00	29.902 
03:50	47.1	47.1	47.1	63	35.2	0	2	248	0.00	29.902 
03:55	47.0	47.0	47.0	63	35.1	0	2	248	0.00	29.902 
04:00	47.0	47.0	47.0	63	35.1	0	4	248	0.00	29.893 
04:05	46.8	46.8	46.8	63	34.9	0	1	248	0.00	29.893 
04:10	46.7	46.7	46.7	63	34.8	0	1	248	0.00	29.893 
04:15	46.5	46.5	46.5	64	35.0	0	1	248	0.00	29.893 
04:20	46.2	46.2	46.2	64	34.7	0	1	248	0.00	29.893 
04:25	46.1	46.1	46.1	65	35.0	0	2	248	0.00	29.893 
04:30	46.0	46.0	46.0	65	34.9	0	1	248	0.00	29.889 
04:35	45.8	45.8	45.8	65	34.7	0	1	248	0.00	29.889 
04:40	45.8	45.8	45.8	65	34.7	0	1	248	0.00	29.889 
04:45	45.8	45.8	45.8	65	34.7	0	1	248	0.00	29.882 
04:50	45.8	45.8	45.8	65	34.7	0	4	248	0.00	29.882 
04:55	46.0	46.0	46.0	65	34.9	0	3	248	0.00	29.882 
05:00	46.1	46.1	46.1	65	35.0	0	4	248	0.00	29.880 
05:05	46.2	46.2	46.2	64	34.7	1	5	248	0.00	29.880 
05:10	46.5	46.5	46.5	63	34.6	0	4	248	0.00	29.880 
05:15	46.5	46.5	46.5	63	34.6	1	5	248	0.00	29.875 
05:20	46.7	46.7	46.7	62	34.4	1	3	248	0.00	29.875 
05:25	46.7	46.7	46.7	62	34.4	0	4	248	0.00	29.875 
05:30	46.7	46.7	46.7	62	34.4	0	2	248	0.00	29.869 
05:35	46.5	46.5	46.5	62	34.2	0	3	248	0.00	29.869 
05:40	46.5	46.5	46.5	62	34.2	0	2	248	0.00	29.869 
05:45	46.5	46.5	46.5	62	34.2	1	3	248	0.00	29.867 
05:50	46.5	46.5	46.5	62	34.2	0	3	248	0.00	29.867 
05:55	46.7	46.7	46.7	62	34.4	0	4	248	0.00	29.867 
06:00	46.7	46.7	46.7	62	34.4	1	3	68	0.00	29.861 
06:05	46.7	46.7	46.7	62	34.4	1	4	248	0.00	29.861 
06:10	46.8	46.8	46.8	62	34.5	0	3	225	0.00	29.861 
06:15	46.8	46.8	46.8	62	34.5	1	4	225	0.00	29.862 
06:20	46.7	46.7	46.7	62	34.4	0	2	248	0.00	29.862 
06:25	46.5	46.5	46.5	62	34.2	0	2	315	0.00	29.862 
06:30	46.5	46.5	46.5	62	34.2	0	1	270	0.00	29.860 
06:35	46.5	46.5	46.5	62	34.2	0	3	248	0.00	29.860 
06:40	46.5	46.5	46.5	62	34.2	0	2	248	0.00	29.860 
06:45	46.7	46.7	46.7	62	34.4	1	4	248	0.00	29.858 
06:50	46.8	46.8	46.8	62	34.5	1	7	248	0.00	29.858 
06:55	47.1	47.1	47.1	61	34.4	1	4	248	0.00	29.858 
07:00	47.1	47.1	47.1	61	34.4	1	5	248	0.00	29.858 
07:05	47.3	47.3	47.3	61	34.5	1	4	248	0.00	29.858 
07:10	47.4	47.4	47.4	61	34.6	1	4	270	0.00	29.858 
07:15	47.6	47.6	47.6	60	34.4	1	5	248	0.00	29.855 
07:20	47.7	47.7	47.7	60	34.5	2	5	248	0.00	29.855 
07:25	47.7	47.7	47.7	60	34.5	1	5	248	0.00	29.855 
07:30	47.7	47.7	47.7	61	34.9	1	5	248	0.00	29.847 
07:35	47.9	47.9	47.9	60	34.7	1	5	248	0.00	29.847 
07:40	48.0	48.0	48.0	60	34.8	1	4	270	0.00	29.847 
07:45	48.0	48.0	48.0	60	34.8	1	5	270	0.00	29.846 
07:50	48.3	48.3	48.3	60	35.1	1	5	270	0.00	29.846 
07:55	48.6	48.6	48.6	59	34.9	1	5	248	0.00	29.846 
08:00	48.9	48.9	48.9	59	35.2	0	3	248	0.00	29.846 
08:05	49.4	49.4	49.4	58	35.2	1	4	248	0.00	29.846 
08:10	49.8	49.8	49.8	58	35.6	1	2	315	0.00	29.846 
08:15	50.4	50.4	50.4	57	35.7	1	5	248	0.00	29.848 
08:20	50.5	50.5	50.5	56	35.4	1	4	248	0.00	29.848 
08:25	50.8	50.8	50.8	55	35.2	1	5	225	0.00	29.848 
08:30	51.1	51.1	51.1	55	35.5	1	7	270	0.00	29.848 
08:35	51.3	51.3	51.3	54	35.2	2	6	248	0.00	29.848 
08:40	51.4	51.4	51.4	54	35.3	1	6	248	0.00	29.848 
08:45	51.6	51.6	51.6	55	36.0	1	7	270	0.00	29.845 
08:50	51.7	51.7	51.7	55	36.1	2	6	248	0.00	29.845 
08:55	52.0	52.0	52.0	55	36.3	1	3	338	0.00	29.845 
09:00	52.3	52.3	52.3	54	36.2	1	6	248	0.00	29.834 
09:05	52.5	52.5	52.5	54	36.3	2	5	248	0.00	29.834 
09:10	52.8	52.8	52.8	53	36.1	1	6	248	0.00	29.834 
09:15	53.1	53.1	53.1	52	35.9	1	5	248	0.00	29.837 
09:20	53.5	53.5	53.5	52	36.3	1	4	248	0.00	29.837 
09:25	53.8	53.8	53.8	53	37.1	2	9	248	0.00	29.837 
09:30	54.2	54.2	54.2	51	36.5	2	4	248	0.00	29.830 
09:35	54.5	54.5	54.5	51	36.7	2	5	248	0.00	29.830 
09:40	54.7	54.7	54.7	50	36.4	2	9	248	0.00	29.830 
09:45	55.1	55.1	55.1	50	36.8	2	9	248	0.00	29.830 
09:50	55.4	55.4	55.4	50	37.1	2	5	248	0.00	29.830 
09:55	55.7	55.7	55.7	50	37.3	2	7	248	0.00	29.830 
10:00	55.9	55.9	55.9	50	37.5	2	9	270	0.00	29.814 
10:05	55.9	55.9	55.9	50	37.5	1	5	270	0.00	29.814 
10:10	56.2	56.2	56.2	49	37.3	3	7	248	0.00	29.814 
10:15	56.5	56.5	56.5	48	37.0	3	7	248	0.00	29.813 
10:20	56.7	56.7	56.7	48	37.2	2	6	248	0.00	29.813 
10:25	57.3	57.3	57.3	48	37.8	1	6	248	0.00	29.813 
10:30	57.6	57.6	57.6	47	37.5	2	6	292	0.00	29.812 
10:35	57.6	57.6	57.6	46	37.0	2	7	270	0.00	29.812 
10:40	58.0	58.0	58.0	46	37.3	3	11	248	0.00	29.812 
10:45	58.6	58.6	58.6	46	37.9	2	7	248	0.00	29.811 
10:50	59.2	59.2	59.2	46	38.4	2	5	315	0.00	29.811 
10:55	59.3	59.3	59.3	45	38.0	2	7	248	0.00	29.811 
11:00	59.2	59.2	59.2	46	38.4	1	3	270	0.00	29.812 
11:05	59.2	59.2	59.2	47	39.0	1	7	248	0.00	29.812 
11:10	59.3	59.3	59.3	46	38.5	1	5	248	0.00	29.812 
11:15	59.6	59.6	59.6	45	38.2	3	7	270	0.00	29.801 
11:20	59.9	59.9	59.9	46	39.1	2	7	248	0.00	29.801 
11:25	60.4	60.4	60.4	47	40.1	1	5	90	0.00	29.801 
11:30	60.7	60.7	60.7	45	39.2	3	9	292	0.00	29.785 
11:35	60.9	60.9	60.9	45	39.4	3	9	248	0.00	29.785 
11:40	61.5	61.5	61.5	45	40.0	2	9	270	0.00	29.785 
11:45	61.6	61.6	61.6	44	39.5	1	4	225	0.00	29.794 
11:50	61.6	61.6	61.6	45	40.0	2	6	292	0.00	29.794 
11:55	61.6	61.6	61.6	45	40.0	2	4	248	0.00	29.794 
12:00	61.8	61.8	61.8	45	40.2	2	6	270	0.00	29.779 
12:05	62.0	62.0	62.0	44	39.8	2	6	270	0.00	29.779 
12:10	62.7	62.7	62.7	43	39.9	2	7	270	0.00	29.779 
12:15	63.2	63.2	63.2	40	38.5	4	13	248	0.00	29.762 
12:20	63.5	63.5	63.5	42	40.0	3	14	270	0.00	29.762 
12:25	64.0	64.0	64.0	41	39.8	3	7	270	0.00	29.762 
12:30	64.5	64.5	64.5	41	40.3	3	7	270	0.00	29.749 
12:35	64.7	64.7	64.7	39	39.2	3	10	248	0.00	29.749 
12:40	64.5	64.5	64.5	39	39.0	3	9	248	0.00	29.749 
12:45	64.8	64.8	64.8	41	40.5	2	7	248	0.00	29.743 
12:50	65.2	65.2	65.2	41	40.9	3	14	248	0.00	29.743 
12:55	65.5	65.5	65.5	39	39.9	4	11	270	0.00	29.743 
13:00	65.5	65.5	65.5	40	40.5	4	11	248	0.00	29.730 
13:05	65.8	65.8	65.8	41	41.4	4	10	248	0.00	29.730 
13:10	66.0	66.0	66.0	39	40.3	5	12	270	0.00	29.730 
13:15	66.0	66.0	66.0	39	40.3	4	12	248	0.00	29.735 
13:20	66.3	66.3	66.3	39	40.6	5	15	270	0.00	29.735 
13:25	66.3	66.3	66.3	40	41.2	4	11	270	0.00	29.735 
13:30	66.4	66.4	66.4	39	40.7	5	12	270	0.00	29.734 
13:35	66.9	66.9	66.9	40	41.8	3	10	248	0.00	29.734 
13:40	67.3	67.3	67.3	39	41.5	3	13	248	0.00	29.734 
13:45	67.4	67.4	67.4	40	42.2	3	10	248	0.00	29.741 
13:50	67.8	67.8	67.8	39	41.9	2	6	248	0.00	29.741 
13:55	67.9	67.9	67.9	40	42.7	3	11	248	0.00	29.741 
14:00	68.3	68.3	68.3	38	41.7	3	8	248	0.00	29.739 
14:05	68.1	68.1	68.1	38	41.5	3	6	270	0.00	29.739 
14:10	67.4	67.4	67.4	39	41.6	4	12	270	0.00	29.739 
14:15	67.3	67.3	67.3	39	41.5	4	15	248	0.00	29.736 
14:20	67.8	67.8	67.8	39	41.9	3	7	248	0.00	29.736 
14:25	68.3	68.3	68.3	38	41.7	4	12	248	0.00	29.736 
14:30	68.9	68.9	68.9	37	41.5	4	14	248	0.00	29.731 
14:35	69.4	69.4	69.4	36	41.3	4	10	248	0.00	29.731 
14:40	70.1	70.1	70.1	37	42.6	3	7	248	0.00	29.731 
14:45	70.6	70.6	70.6	35	41.6	4	12	248	0.00	29.723 
14:50	70.8	70.8	70.8	37	43.2	4	9	270	0.00	29.723 
14:55	70.9	70.9	70.9	36	42.6	3	8	248	0.00	29.723 
15:00	70.9	70.9	70.9	35	41.9	4	9	248	0.00	29.722 
15:05	70.8	70.8	70.8	35	41.8	4	12	248	0.00	29.722 
15:10	70.3	70.3	70.3	37	42.8	4	16	248	0.00	29.722 
15:15	70.4	70.4	70.4	38	43.6	4	11	248	0.00	29.724 
15:20	70.6	70.6	70.6	38	43.7	4	10	248	0.00	29.724 
15:25	71.1	71.1	71.1	36	42.8	3	9	248	0.00	29.724 
15:30	71.3	71.3	71.3	35	42.2	3	7	248	0.00	29.722 
15:35	71.6	71.6	71.6	36	43.2	4	9	248	0.00	29.722 
15:40	71.3	71.3	71.3	35	42.2	5	15	270	0.00	29.722 
15:45	71.1	71.1	71.1	35	42.0	4	10	248	0.00	29.731 
15:50	70.4	70.4	70.4	37	42.9	5	9	270	0.00	29.731 
15:55	70.1	70.1	70.1	38	43.3	4	9	270	0.00	29.731 
16:00	69.9	69.9	69.9	38	43.1	4	7	248	0.00	29.724 
16:05	70.3	70.3	70.3	38	43.5	3	7	270	0.00	29.724 
16:10	70.6	70.6	70.6	37	43.1	3	6	270	0.00	29.724 
16:15	70.6	70.6	70.6	36	42.3	4	11	270	0.00	29.717 
16:20	70.3	70.3	70.3	37	42.8	4	7	248	0.00	29.717 
16:25	70.4	70.4	70.4	37	42.9	3	7	248	0.00	29.717 
16:30	70.8	70.8	70.8	38	43.9	2	9	248	0.00	29.722 
16:35	70.8	70.8	70.8	37	43.2	4	10	248	0.00	29.722 
16:40	70.1	70.1	70.1	37	42.6	4	7	270	0.00	29.722 
16:45	69.6	69.6	69.6	38	42.9	4	9	270	0.00	29.744 
16:50	69.4	69.4	69.4	39	43.4	4	7	270	0.00	29.744 
16:55	69.3	69.3	69.3	39	43.3	4	10	248	0.00	29.744 
17:00	69.3	69.3	69.3	40	43.9	3	6	248	0.00	29.755 
17:05	69.1	69.1	69.1	39	43.1	3	7	270	0.00	29.755 
17:10	69.1	69.1	69.1	39	43.1	3	6	270	0.00	29.755 
17:15	69.1	69.1	69.1	39	43.1	5	10	270	0.00	29.756 
17:20	68.9	68.9	68.9	39	42.9	5	7	270	0.00	29.756 
17:25	68.3	68.3	68.3	40	43.0	5	12	270	0.00	29.756 
17:30	67.9	67.9	67.9	41	43.3	4	12	270	0.00	29.756 
17:35	67.9	67.9	67.9	41	43.3	3	7	270	0.00	29.756 
17:40	67.8	67.8	67.8	42	43.9	3	6	270	0.00	29.756 
17:45	67.8	67.8	67.8	42	43.9	3	10	248	0.00	29.756 
17:50	67.8	67.8	67.8	41	43.2	3	10	270	0.00	29.756 
17:55	67.3	67.3	67.3	41	42.8	4	10	270	0.00	29.756 
18:00	66.9	66.9	66.9	43	43.7	3	6	270	0.00	29.758 
18:05	66.8	66.8	66.8	44	44.2	2	6	248	0.00	29.758 
18:10	66.8	66.8	66.8	43	43.6	2	5	270	0.00	29.758 
18:15	67.1	67.1	67.1	43	43.8	2	5	248	0.00	29.760 
18:20	67.4	67.4	67.4	44	44.7	2	4	248	0.00	29.760 
18:25	67.6	67.6	67.6	43	44.3	2	4	248	0.00	29.760 
18:30	67.8	67.8	67.8	43	44.5	2	6	248	0.00	29.761 
18:35	67.4	67.4	67.4	43	44.1	2	6	270	0.00	29.761 
18:40	67.4	67.4	67.4	44	44.7	2	5	248	0.00	29.761 
18:45	67.4	67.4	67.4	43	44.1	2	6	270	0.00	29.772 
18:50	67.3	67.3	67.3	45	45.2	1	4	248	0.00	29.772 
18:55	67.1	67.1	67.1	46	45.6	2	4	248	0.00	29.772 
19:00	66.9	66.9	66.9	46	45.4	3	7	270	0.00	29.779 
19:05	66.8	66.8	66.8	46	45.3	3	5	270	0.00	29.779 
19:10	66.8	66.8	66.8	47	45.9	2	7	270	0.00	29.779 
19:15	66.6	66.6	66.6	47	45.7	2	4	270	0.00	29.782 
19:20	66.3	66.3	66.3	47	45.5	1	4	270	0.00	29.782 
19:25	66.1	66.1	66.1	48	45.8	2	4	270	0.00	29.782 
19:30	66.0	66.0	66.0	48	45.7	1	5	270	0.00	29.788 
19:35	65.8	65.8	65.8	49	46.1	1	2	270	0.00	29.788 
19:40	65.6	65.6	65.6	49	45.9	1	3	270	0.00	29.788 
19:45	65.6	65.6	65.6	49	45.9	1	3	270	0.00	29.791 
19:50	65.5	65.5	65.5	48	45.3	1	5	338	0.00	29.791 
19:55	65.0	65.0	65.0	48	44.8	1	3	248	0.00	29.791 
20:00	64.7	64.7	64.7	48	44.6	1	3	248	0.00	29.790 
20:05	64.2	64.2	64.2	49	44.6	0	2	248	0.00	29.790 
20:10	63.9	63.9	63.9	50	44.9	1	2	248	0.00	29.790 
20:15	63.4	63.4	63.4	50	44.4	1	3	248	0.00	29.802 
20:20	63.1	63.1	63.1	50	44.2	2	5	270	0.00	29.802 
20:25	62.6	62.6	62.6	52	44.7	3	6	270	0.00	29.802 
20:30	60.9	60.9	60.9	56	45.1	4	10	315	0.00	29.824 
20:35	59.6	59.6	59.6	59	45.3	2	5	315	0.00	29.824 
20:40	58.9	58.9	58.9	60	45.0	1	5	315	0.00	29.824 
20:45	58.6	58.6	58.6	61	45.2	2	4	292	0.00	29.830 
20:50	58.3	58.3	58.3	62	45.3	2	6	270	0.00	29.830 
20:55	58.1	58.1	58.1	63	45.6	2	5	315	0.00	29.830 
21:00	57.8	57.8	57.8	63	45.3	1	4	315	0.00	29.839 
21:05	57.6	57.6	57.6	64	45.5	1	4	315	0.00	29.839 
21:10	57.5	57.5	57.5	64	45.4	1	4	270	0.00	29.839 
21:15	57.3	57.3	57.3	65	45.6	1	5	270	0.00	29.852 
21:20	57.2	57.2	57.2	66	45.9	1	3	338	0.00	29.852 
21:25	57.0	57.0	57.0	67	46.2	1	4	315	0.00	29.852 
21:30	56.7	56.7	56.7	69	46.6	1	4	315	0.00	29.870 
21:35	56.5	56.5	56.5	71	47.2	1	5	270	0.00	29.870 
21:40	56.2	56.2	56.2	72	47.3	1	3	270	0.00	29.870 
21:45	56.0	56.0	56.0	73	47.5	1	3	270	0.00	29.886 
21:50	55.7	55.7	55.7	75	47.9	0	2	270	0.00	29.886 
21:55	55.4	55.4	55.4	76	48.0	0	2	270	0.00	29.886 
22:00	55.3	55.3	55.3	77	48.2	0	1	270	0.00	29.896 
22:05	55.1	55.1	55.1	77	48.0	0	1	270	0.00	29.896 
22:10	54.8	54.8	54.8	79	48.4	0	1	270	0.01	29.896 
22:15	54.7	54.7	54.7	80	48.7	0	1	270	0.00	29.894 
22:20	54.4	54.4	54.4	81	48.7	0	1	270	0.00	29.894 
22:25	54.2	54.2	54.2	81	48.5	0	1	270	0.00	29.894 
22:30	54.1	54.1	54.1	82	48.7	0	1	270	0.00	29.892 
22:35	53.8	53.8	53.8	83	48.8	0	2	270	0.00	29.892 
22:40	53.6	53.6	53.6	84	48.9	0	1	270	0.00	29.892 
22:45	53.6	53.6	53.6	84	48.9	0	1	270	0.00	29.886 
22:50	53.5	53.5	53.5	84	48.8	0	1	270	0.00	29.886 
22:55	53.3	53.3	53.3	85	48.9	0	1	270	0.00	29.886 
23:00	53.2	53.2	53.2	85	48.8	0	0	---	0.00	29.890 
23:05	53.2	53.2	53.2	85	48.8	0	0	---	0.00	29.890 
23:10	53.1	53.1	53.1	86	49.0	0	0	---	0.00	29.890 
23:15	53.1	53.1	53.1	86	49.0	0	0	---	0.00	29.885 
23:20	52.9	52.9	52.9	87	49.1	0	0	---	0.00	29.885 
23:25	52.9	52.9	52.9	87	49.1	0	1	270	0.00	29.885 
23:30	52.8	52.8	52.8	87	49.0	0	0	---	0.00	29.880 
23:35	52.6	52.6	52.6	88	49.1	0	0	---	0.00	29.880 
23:40	52.5	52.5	52.5	88	49.0	0	0	---	0.00	29.880 
23:45	52.5	52.5	52.5	88	49.0	0	0	---	0.00	29.881 
23:50	52.3	52.3	52.3	88	48.9	0	0	---	0.00	29.881 
23:55	52.2	52.2	52.2	88	48.8	0	1	270	0.00	29.881 

CoCoRaHS
IN-AL-39
A2 Web Hosting
Creative Commons License
GoDaddy
search engine by freefind advanced

loaded 2018-11-19 11:07:45 • last modified 2010-11-18 10:43:29
Privacy PolicyDisclaimer
• wx.awcolley.com is powered by PmWiki v.2002016 •
• all content (unless otherwise noted) © 2018 A W Colley